Time;durP1;ratioP1;P1;durP2;ratioP2;P2;SDS_P1;SDS_P2;PMS_P1;PMS_P2;Temp;Humidity;BMP_temperature;BMP_pressure;BME280_temperature;BME280_humidity;BME280_pressure;Samples;Min_cycle;Max_cycle;Signal;HPM_P1;HPM_P2
2021/09/23 00:07:52;;;;;;;10.00;8.90;;;;;;;9.81;84.81;100997.00;229756;1196;138484;-74
2021/09/23 00:12:55;;;;;;;10.60;9.60;;;;;;;9.68;85.18;100991.30;229623;1196;138250;-74
2021/09/23 00:18:00;;;;;;;13.30;12.00;;;;;;;9.68;85.37;100981.64;229818;1196;139023;-75
2021/09/23 00:23:03;;;;;;;11.20;10.00;;;;;;;9.69;85.34;100977.47;229353;1200;139020;-73
2021/09/23 00:28:07;;;;;;;11.90;9.20;;;;;;;9.70;85.32;100973.33;229681;1199;139115;-75
2021/09/23 00:33:09;;;;;;;14.00;12.30;;;;;;;9.78;84.99;100963.00;230082;1196;138686;-74
2021/09/23 00:38:11;;;;;;;10.10;9.10;;;;;;;9.81;84.83;100962.73;229437;1196;139049;-73
2021/09/23 00:43:12;;;;;;;10.30;9.20;;;;;;;9.78;84.83;100956.25;229355;1200;138045;-74
2021/09/23 00:48:14;;;;;;;10.00;8.70;;;;;;;9.79;84.85;100945.85;229404;1196;139050;-74
2021/09/23 00:53:20;;;;;;;9.20;8.30;;;;;;;9.74;84.94;100930.91;229591;1197;138869;-75
2021/09/23 00:58:21;;;;;;;9.70;8.70;;;;;;;9.73;85.33;100925.45;229532;1196;138545;-74
2021/09/23 01:03:23;;;;;;;9.70;8.70;;;;;;;9.74;85.35;100919.66;229397;1196;138555;-73
2021/09/23 01:08:25;;;;;;;10.80;9.70;;;;;;;9.76;84.67;100910.86;229602;1196;138845;-74
2021/09/23 01:13:26;;;;;;;11.30;10.10;;;;;;;9.66;85.01;100907.89;229477;1197;139082;-75
2021/09/23 01:18:28;;;;;;;10.70;9.30;;;;;;;9.62;85.36;100897.48;230434;1196;139435;-74
2021/09/23 01:23:30;;;;;;;10.50;9.30;;;;;;;9.73;85.01;100894.48;229582;1196;138382;-75
2021/09/23 01:28:31;;;;;;;12.40;11.20;;;;;;;9.74;84.62;100878.33;230034;1196;138321;-74
2021/09/23 01:33:34;;;;;;;14.90;10.30;;;;;;;9.68;84.88;100865.83;229402;1195;138773;-76
2021/09/23 01:38:35;;;;;;;11.40;10.20;;;;;;;9.65;84.92;100865.93;230288;1196;139084;-75
2021/09/23 01:43:37;;;;;;;12.40;10.50;;;;;;;9.67;84.79;100852.02;230501;1196;139385;-74
2021/09/23 01:48:39;;;;;;;12.30;10.40;;;;;;;9.71;84.64;100839.17;230229;1187;139225;-76
2021/09/23 01:53:40;;;;;;;12.20;10.40;;;;;;;9.67;84.60;100829.49;229664;1196;138277;-76
2021/09/23 01:58:42;;;;;;;13.10;11.20;;;;;;;9.54;85.19;100834.50;229760;1196;138508;-75
2021/09/23 02:03:44;;;;;;;12.90;11.50;;;;;;;9.50;85.43;100839.56;230307;1196;138470;-75
2021/09/23 02:08:45;;;;;;;12.50;10.40;;;;;;;9.49;85.26;100845.48;230201;1195;139411;-74
2021/09/23 02:13:47;;;;;;;12.00;10.60;;;;;;;9.49;85.34;100837.44;230654;1196;139269;-74
2021/09/23 02:18:49;;;;;;;14.40;12.30;;;;;;;9.51;85.13;100826.02;230277;1196;139295;-73
2021/09/23 02:23:51;;;;;;;13.50;11.40;;;;;;;9.49;85.00;100826.52;229665;1195;139162;-74
2021/09/23 02:28:53;;;;;;;13.10;11.80;;;;;;;9.39;85.48;100830.06;230574;1196;138196;-73
2021/09/23 02:33:55;;;;;;;14.50;12.90;;;;;;;9.31;85.72;100827.55;230559;1195;138669;-76
2021/09/23 02:38:56;;;;;;;13.30;11.90;;;;;;;9.32;85.81;100827.50;230285;1187;139247;-75
2021/09/23 02:44:00;;;;;;;13.50;12.10;;;;;;;9.37;85.49;100822.51;229798;1197;139330;-76
2021/09/23 02:49:02;;;;;;;12.80;11.50;;;;;;;9.40;85.20;100819.20;230472;1197;139040;-75
2021/09/23 02:54:04;;;;;;;14.30;11.50;;;;;;;9.42;85.04;100809.58;230098;1194;138678;-72
2021/09/23 02:59:05;;;;;;;13.10;11.10;;;;;;;9.32;85.13;100805.34;229472;1196;138806;-75
2021/09/23 03:04:07;;;;;;;12.70;10.90;;;;;;;9.27;85.10;100801.16;230007;1196;139029;-75
2021/09/23 03:09:09;;;;;;;12.20;10.70;;;;;;;9.28;85.19;100799.00;230507;1196;139457;-75
2021/09/23 03:14:11;;;;;;;12.70;11.40;;;;;;;9.33;84.95;100797.81;234560;1196;138917;-74
2021/09/23 03:19:13;;;;;;;12.30;11.00;;;;;;;9.39;84.66;100796.80;230756;1195;138503;-75
2021/09/23 03:24:15;;;;;;;11.90;10.60;;;;;;;9.35;84.61;100789.05;230605;1195;138001;-75
2021/09/23 03:29:17;;;;;;;13.40;12.00;;;;;;;9.26;84.88;100780.05;229372;1196;138771;-75
2021/09/23 03:34:19;;;;;;;13.50;11.60;;;;;;;9.21;85.29;100770.80;229707;1196;139235;-73
2021/09/23 03:39:20;;;;;;;13.80;11.10;;;;;;;9.26;85.30;100770.34;229601;1195;138954;-75
2021/09/23 03:44:22;;;;;;;12.80;10.40;;;;;;;9.33;84.79;100751.42;230548;1196;139595;-74
2021/09/23 03:49:24;;;;;;;16.30;12.20;;;;;;;9.34;84.73;100750.48;229417;1197;138608;-70
2021/09/23 03:54:26;;;;;;;12.40;11.10;;;;;;;9.38;84.63;100749.96;230460;1196;139173;-75
2021/09/23 03:59:28;;;;;;;12.80;10.80;;;;;;;9.31;84.89;100743.92;230796;1196;138318;-74
2021/09/23 04:04:29;;;;;;;11.30;10.00;;;;;;;9.28;85.37;100731.34;230604;1196;142330;-75
2021/09/23 04:09:31;;;;;;;11.40;10.30;;;;;;;9.32;85.22;100726.86;230670;1196;139636;-74
2021/09/23 04:14:33;;;;;;;13.20;10.90;;;;;;;9.38;85.13;100726.05;229557;1200;139073;-73
2021/09/23 04:19:34;;;;;;;12.90;11.30;;;;;;;9.36;85.15;100722.66;230679;1196;138280;-74
2021/09/23 04:24:36;;;;;;;14.10;11.00;;;;;;;9.34;85.30;100714.77;229624;1197;138500;-75
2021/09/23 04:29:43;;;;;;;11.30;10.00;;;;;;;9.33;85.57;100702.19;229516;1196;138462;-74
2021/09/23 04:34:45;;;;;;;13.90;12.40;;;;;;;9.36;85.70;100689.50;230501;1197;139260;-77
2021/09/23 04:39:47;;;;;;;12.40;10.60;;;;;;;9.41;85.60;100686.41;230652;1196;138920;-74
2021/09/23 04:44:49;;;;;;;11.40;10.20;;;;;;;9.43;85.52;100692.31;230690;1196;138528;-76
2021/09/23 04:49:50;;;;;;;12.00;10.20;;;;;;;9.40;85.93;100696.29;230229;1195;138235;-79
2021/09/23 04:54:52;;;;;;;10.40;9.30;;;;;;;9.39;86.11;100695.20;230363;1195;138576;-76
2021/09/23 04:59:53;;;;;;;12.90;9.20;;;;;;;9.42;86.29;100684.21;230548;1195;138665;-75
2021/09/23 05:04:55;;;;;;;10.90;9.80;;;;;;;9.47;86.25;100673.15;229891;1195;139254;-75
2021/09/23 05:09:57;;;;;;;11.00;9.90;;;;;;;9.50;86.33;100658.98;229864;1200;138499;-74
2021/09/23 05:14:58;;;;;;;12.00;10.30;;;;;;;9.49;86.69;100655.55;230399;1196;138708;-76
2021/09/23 05:20:00;;;;;;;11.60;10.40;;;;;;;9.50;86.91;100648.63;230678;1195;138916;-76
2021/09/23 05:25:02;;;;;;;12.60;11.30;;;;;;;9.57;87.19;100640.77;230576;1196;139287;-75
2021/09/23 05:30:12;;;;;;;11.50;9.30;;;;;;;9.66;87.03;100630.95;230700;1196;139561;-75
2021/09/23 05:35:14;;;;;;;10.70;9.60;;;;;;;9.75;86.81;100629.23;230913;1195;139511;-74
2021/09/23 05:40:16;;;;;;;13.60;11.50;;;;;;;9.79;86.85;100622.20;230920;1196;138535;-75
2021/09/23 05:45:18;;;;;;;12.10;10.80;;;;;;;9.78;87.47;100624.04;230746;1196;138765;-75
2021/09/23 05:50:20;;;;;;;13.30;10.90;;;;;;;9.86;87.25;100619.47;230685;1196;138872;-76
2021/09/23 05:55:22;;;;;;;11.70;10.60;;;;;;;9.91;87.20;100623.54;230737;1196;139284;-73
2021/09/23 06:00:24;;;;;;;11.60;10.20;;;;;;;10.00;87.08;100632.02;230580;1195;138815;-74
2021/09/23 06:05:26;;;;;;;11.50;10.20;;;;;;;10.08;86.65;100642.55;230741;1195;139424;-74
2021/09/23 06:10:28;;;;;;;10.80;9.50;;;;;;;10.07;86.80;100641.45;230681;1195;138865;-75
2021/09/23 06:15:29;;;;;;;11.70;10.10;;;;;;;10.04;87.13;100638.69;230804;1180;138806;-76
2021/09/23 06:20:31;;;;;;;14.20;11.20;;;;;;;10.03;87.76;100635.98;230211;1196;139406;-76
2021/09/23 06:25:34;;;;;;;12.60;10.80;;;;;;;10.10;87.59;100630.25;230638;1196;139323;-79
2021/09/23 06:30:35;;;;;;;13.20;10.70;;;;;;;10.19;87.46;100626.70;230723;1195;139808;-76
2021/09/23 06:35:37;;;;;;;15.50;13.00;;;;;;;10.29;87.33;100624.98;230579;1196;141666;-74
2021/09/23 06:40:39;;;;;;;15.40;12.00;;;;;;;10.33;86.95;100626.45;230557;1196;139044;-74
2021/09/23 06:45:41;;;;;;;15.10;12.60;;;;;;;10.36;87.03;100615.62;229978;1187;139720;-75
2021/09/23 06:50:43;;;;;;;18.10;13.90;;;;;;;10.43;86.83;100607.59;230619;1197;142787;-76
2021/09/23 06:55:45;;;;;;;16.00;11.40;;;;;;;10.51;86.39;100605.20;230409;1195;139469;-75
2021/09/23 07:00:46;;;;;;;15.60;12.80;;;;;;;10.59;86.23;100600.90;230089;1196;138862;-75
2021/09/23 07:05:48;;;;;;;18.00;14.50;;;;;;;10.64;86.19;100597.95;229020;1197;138803;-75
2021/09/23 07:10:50;;;;;;;18.30;14.10;;;;;;;10.73;85.96;100587.80;229157;1196;140122;-73
2021/09/23 07:15:52;;;;;;;15.00;12.80;;;;;;;10.87;85.96;100583.77;230739;1195;138943;-75
2021/09/23 07:20:56;;;;;;;20.10;13.60;;;;;;;10.99;85.49;100572.70;230684;1196;139194;-76
2021/09/23 07:25:58;;;;;;;17.50;13.20;;;;;;;11.11;85.19;100560.94;230711;1195;139481;-78
2021/09/23 07:31:02;;;;;;;23.60;15.20;;;;;;;11.22;85.07;100556.79;230222;1196;138751;-74
2021/09/23 07:36:03;;;;;;;15.50;13.30;;;;;;;11.33;85.14;100554.50;230800;1196;138168;-74
2021/09/23 07:41:05;;;;;;;16.00;14.20;;;;;;;11.39;84.51;100552.29;230654;1196;138293;-74
2021/09/23 07:46:07;;;;;;;23.10;14.30;;;;;;;11.47;84.49;100550.56;230606;1196;140075;-74
2021/09/23 07:51:09;;;;;;;18.90;14.50;;;;;;;11.59;84.45;100547.96;230582;1196;139389;-77
2021/09/23 07:56:11;;;;;;;22.00;14.70;;;;;;;11.69;84.08;100539.02;230661;1196;139080;-75
2021/09/23 08:01:12;;;;;;;18.90;13.60;;;;;;;11.85;83.68;100535.83;230503;1194;139103;-75
2021/09/23 08:06:14;;;;;;;18.60;14.20;;;;;;;11.94;83.46;100535.98;230725;1196;139077;-75
2021/09/23 08:11:16;;;;;;;19.80;13.70;;;;;;;11.97;83.22;100528.00;230241;1196;138375;-74
2021/09/23 08:16:17;;;;;;;19.90;13.00;;;;;;;12.01;83.43;100521.77;232341;1195;139333;-74
2021/09/23 08:21:19;;;;;;;15.10;11.70;;;;;;;12.10;82.75;100520.41;231101;1195;139228;-80
2021/09/23 08:26:23;;;;;;;17.70;14.50;;;;;;;12.24;82.75;100523.64;232309;1195;139042;-74
2021/09/23 08:31:25;;;;;;;15.20;13.40;;;;;;;12.35;82.18;100513.44;230735;1196;139436;-74
2021/09/23 08:36:27;;;;;;;21.10;13.50;;;;;;;12.42;81.87;100512.97;230423;1197;139897;-74
2021/09/23 08:41:29;;;;;;;21.00;13.90;;;;;;;12.49;81.57;100516.80;230746;1195;139289;-75
2021/09/23 08:46:34;;;;;;;17.80;12.90;;;;;;;12.56;81.39;100513.35;230071;1196;140033;-74
2021/09/23 08:51:36;;;;;;;19.00;11.40;;;;;;;12.67;81.40;100503.00;230431;1187;140175;-75
2021/09/23 08:56:38;;;;;;;13.40;11.00;;;;;;;12.87;80.89;100477.48;230730;1195;138825;-75
2021/09/23 09:01:50;;;;;;;18.90;12.70;;;;;;;13.13;80.24;100463.45;230577;1196;139292;-75
2021/09/23 09:06:57;;;;;;;14.90;12.30;;;;;;;13.14;79.59;100459.60;230668;1186;139079;-75
2021/09/23 09:11:58;;;;;;;13.20;9.90;;;;;;;13.36;79.28;100445.09;230210;1196;138976;-75
2021/09/23 09:17:06;;;;;;;17.40;10.30;;;;;;;13.43;79.08;100433.85;230271;1196;138854;-75
2021/09/23 09:22:14;;;;;;;14.60;10.10;;;;;;;13.33;79.50;100418.84;233914;1195;139892;-78
2021/09/23 09:27:32;;;;;;;13.20;9.90;;;;;;;13.48;79.28;100398.70;232845;1195;139657;-74
2021/09/23 09:32:48;;;;;;;13.70;9.40;;;;;;;13.70;79.41;100380.41;234194;1195;140196;-73
2021/09/23 09:37:51;;;;;;;12.90;9.20;;;;;;;13.91;77.78;100366.02;230678;1195;138773;-74
2021/09/23 09:42:54;;;;;;;10.40;6.90;;;;;;;13.90;77.54;100353.82;230757;1196;139239;-74
2021/09/23 09:47:58;;;;;;;8.20;5.70;;;;;;;13.92;77.89;100345.98;229649;1196;139029;-76
2021/09/23 09:53:09;;;;;;;10.20;6.70;;;;;;;14.00;77.17;100338.02;229630;1187;139130;-74
2021/09/23 09:58:13;;;;;;;9.80;6.20;;;;;;;14.07;77.08;100334.77;230614;1195;138651;-74
2021/09/23 10:03:18;;;;;;;8.10;5.10;;;;;;;14.14;76.92;100326.38;230758;1195;138740;-79
2021/09/23 10:08:20;;;;;;;6.90;4.50;;;;;;;14.33;76.35;100317.58;230658;1196;139824;-75
2021/09/23 10:13:22;;;;;;;11.90;5.00;;;;;;;14.53;75.79;100315.02;230706;1196;138933;-76
2021/09/23 10:18:24;;;;;;;8.50;5.10;;;;;;;14.72;75.39;100313.32;230627;1195;138486;-76
2021/09/23 10:23:28;;;;;;;6.50;3.50;;;;;;;14.81;73.34;100306.02;230445;1196;138828;-79
2021/09/23 10:28:31;;;;;;;6.60;3.00;;;;;;;14.89;72.45;100290.05;230659;1195;139098;-75
2021/09/23 10:33:32;;;;;;;8.70;3.20;;;;;;;15.05;70.91;100273.91;230877;1195;138929;-76
2021/09/23 10:38:35;;;;;;;5.20;3.20;;;;;;;15.01;71.69;100262.75;230643;1195;138399;-77
2021/09/23 10:43:39;;;;;;;4.70;3.10;;;;;;;14.92;71.13;100255.10;230397;1196;139367;-74
2021/09/23 10:48:47;;;;;;;8.10;4.00;;;;;;;14.91;71.82;100256.04;229600;1196;138882;-75
2021/09/23 10:53:57;;;;;;;8.10;4.60;;;;;;;15.14;72.42;100255.66;230851;1195;138056;-75
2021/09/23 10:58:59;;;;;;;5.00;3.50;;;;;;;15.44;70.76;100257.55;230251;1195;139090;-76
2021/09/23 11:04:02;;;;;;;11.70;7.80;;;;;;;15.45;70.17;100257.48;230780;1196;138603;-76
2021/09/23 11:09:38;;;;;;;10.90;4.50;;;;;;;15.50;70.17;100248.02;231255;1195;138658;-76
2021/09/23 11:14:41;;;;;;;9.00;5.60;;;;;;;15.33;70.99;100244.96;230365;1196;139230;-75
2021/09/23 11:19:43;;;;;;;8.70;4.40;;;;;;;15.25;71.56;100239.31;229833;1196;138519;-75
2021/09/23 11:24:45;;;;;;;8.10;4.40;;;;;;;15.25;70.34;100221.11;229442;1196;139078;-74
2021/09/23 11:29:47;;;;;;;6.60;4.30;;;;;;;15.07;70.96;100226.27;229970;1197;139139;-75
2021/09/23 11:35:00;;;;;;;8.70;4.20;;;;;;;14.96;70.61;100225.71;230582;1196;137932;-75
2021/09/23 11:40:05;;;;;;;5.50;3.80;;;;;;;14.86;70.66;100216.73;230691;1196;138786;-74
2021/09/23 11:45:12;;;;;;;8.40;4.80;;;;;;;14.84;71.04;100213.09;230216;1195;139235;-76
2021/09/23 11:50:32;;;;;;;10.10;5.30;;;;;;;14.83;71.34;100203.41;230614;1194;138131;-71
2021/09/23 11:55:35;;;;;;;9.60;4.80;;;;;;;14.76;71.07;100196.48;230751;1188;138608;-73
2021/09/23 12:00:40;;;;;;;6.30;4.70;;;;;;;14.78;70.93;100191.61;230942;1196;138658;-77
2021/09/23 12:05:45;;;;;;;6.40;5.00;;;;;;;14.83;70.90;100176.60;230764;1196;138592;-75
2021/09/23 12:10:47;;;;;;;10.70;4.70;;;;;;;14.89;70.58;100162.78;230685;1195;138373;-74
2021/09/23 12:15:51;;;;;;;9.80;4.40;;;;;;;14.95;70.11;100154.80;230780;1196;139236;-77
2021/09/23 12:20:55;;;;;;;9.30;5.20;;;;;;;14.95;70.22;100141.52;230111;1196;138649;-76
2021/09/23 12:26:02;;;;;;;7.20;4.80;;;;;;;14.90;70.80;100135.70;230284;1196;138343;-75
2021/09/23 12:31:06;;;;;;;10.00;5.80;;;;;;;14.87;71.35;100128.48;230658;1195;138830;-76
2021/09/23 12:36:13;;;;;;;9.70;6.40;;;;;;;14.90;72.18;100117.75;230172;1195;139313;-74
2021/09/23 12:41:20;;;;;;;12.40;7.10;;;;;;;14.90;72.16;100120.27;230518;1195;138133;-75
2021/09/23 12:46:29;;;;;;;8.30;4.90;;;;;;;14.89;71.40;100116.86;230478;1196;139209;-74
2021/09/23 12:51:35;;;;;;;8.50;5.40;;;;;;;14.95;71.71;100115.27;230745;1186;138727;-77
2021/09/23 12:56:37;;;;;;;6.60;5.20;;;;;;;14.92;71.38;100121.06;229803;1196;138314;-77
2021/09/23 13:01:39;;;;;;;9.30;5.70;;;;;;;14.82;71.72;100114.05;230793;1195;138020;-76
2021/09/23 13:06:40;;;;;;;7.90;6.10;;;;;;;14.78;71.61;100106.91;230469;1196;138972;-76
2021/09/23 13:11:42;;;;;;;9.00;6.40;;;;;;;14.79;71.38;100095.21;230350;1196;138665;-75
2021/09/23 13:16:44;;;;;;;8.10;5.30;;;;;;;14.77;71.37;100086.02;230658;1196;138298;-75
2021/09/23 13:21:47;;;;;;;8.70;5.90;;;;;;;14.73;72.43;100068.71;230018;1196;138041;-75
2021/09/23 13:26:49;;;;;;;10.10;5.90;;;;;;;14.75;72.54;100053.55;230168;1196;139048;-75
2021/09/23 13:31:51;;;;;;;9.80;6.90;;;;;;;14.74;73.22;100041.45;230653;1196;139563;-74
2021/09/23 13:36:52;;;;;;;10.30;8.40;;;;;;;14.69;73.69;100030.32;230744;1196;138385;-75
2021/09/23 13:41:54;;;;;;;11.90;7.00;;;;;;;14.69;73.74;100013.45;230447;1196;138510;-75
2021/09/23 13:46:56;;;;;;;10.60;6.00;;;;;;;14.62;74.25;100005.09;230449;1196;138611;-75
2021/09/23 13:51:58;;;;;;;8.60;6.10;;;;;;;14.64;74.19;99991.86;229623;1196;139210;-78
2021/09/23 13:57:00;;;;;;;8.50;6.20;;;;;;;14.66;74.51;99989.89;230763;1195;138674;-75
2021/09/23 14:02:02;;;;;;;7.50;6.00;;;;;;;14.65;74.43;99976.84;230407;1199;138455;-75
2021/09/23 14:07:04;;;;;;;7.60;5.50;;;;;;;14.63;74.54;99971.66;230396;1196;139260;-75
2021/09/23 14:12:06;;;;;;;11.10;6.70;;;;;;;14.62;74.50;99965.55;230422;1195;139227;-75
2021/09/23 14:17:09;;;;;;;10.30;7.00;;;;;;;14.59;74.65;99953.04;230608;1186;138786;-76
2021/09/23 14:22:10;;;;;;;8.60;6.50;;;;;;;14.51;75.59;99939.42;230127;1195;138157;-73
2021/09/23 14:27:12;;;;;;;8.80;6.40;;;;;;;14.39;76.10;99926.30;230383;1195;138707;-73
2021/09/23 14:32:14;;;;;;;10.80;6.30;;;;;;;14.36;76.25;99911.59;229957;1197;138555;-77
2021/09/23 14:37:16;;;;;;;10.90;8.00;;;;;;;14.40;75.99;99890.24;230723;1196;138606;-76
2021/09/23 14:42:18;;;;;;;9.30;6.80;;;;;;;14.38;76.13;99884.45;230423;1195;138597;-75
2021/09/23 14:47:20;;;;;;;6.50;5.30;;;;;;;14.34;76.40;99884.59;230175;1196;139020;-75
2021/09/23 14:52:22;;;;;;;9.10;6.90;;;;;;;14.35;76.47;99874.04;230214;1196;138504;-78
2021/09/23 14:57:24;;;;;;;8.20;6.10;;;;;;;14.33;76.73;99870.76;230721;1196;138721;-76
2021/09/23 15:02:27;;;;;;;10.80;8.70;;;;;;;14.36;76.66;99865.38;230328;1196;137791;-76
2021/09/23 15:07:29;;;;;;;11.40;7.20;;;;;;;14.30;76.98;99868.92;230258;1196;138552;-75
2021/09/23 15:12:31;;;;;;;10.20;6.90;;;;;;;14.30;77.27;99862.59;229751;1195;139477;-76
2021/09/23 15:17:33;;;;;;;12.20;7.40;;;;;;;14.37;77.02;99853.77;230743;1195;138699;-76
2021/09/23 15:22:35;;;;;;;8.30;7.50;;;;;;;14.39;77.03;99841.15;230511;1196;138952;-78
2021/09/23 15:27:38;;;;;;;10.60;7.40;;;;;;;14.36;77.21;99830.42;230878;1196;139015;-78
2021/09/23 15:32:40;;;;;;;12.90;7.70;;;;;;;14.40;77.19;99817.92;231214;1199;138586;-75
2021/09/23 15:37:43;;;;;;;10.10;9.00;;;;;;;14.45;77.01;99801.64;231226;1195;138865;-75
2021/09/23 15:42:45;;;;;;;13.90;9.80;;;;;;;14.43;77.16;99792.15;229949;1196;138416;-76
2021/09/23 15:47:47;;;;;;;11.90;9.70;;;;;;;14.39;77.46;99788.84;230365;1196;140066;-75
2021/09/23 15:52:50;;;;;;;13.10;9.30;;;;;;;14.37;77.42;99769.06;229357;1196;138757;-76
2021/09/23 15:57:52;;;;;;;13.10;10.30;;;;;;;14.42;77.47;99762.52;230183;1195;139105;-75
2021/09/23 16:02:57;;;;;;;11.00;9.40;;;;;;;14.41;77.31;99757.64;230622;1196;138466;-76
2021/09/23 16:08:06;;;;;;;15.30;13.10;;;;;;;14.41;77.39;99742.31;230233;1195;139240;-77
2021/09/23 16:13:10;;;;;;;11.10;10.00;;;;;;;14.40;77.53;99707.70;230439;1196;139239;-75
2021/09/23 16:18:13;;;;;;;13.80;9.30;;;;;;;14.40;77.44;99696.99;230305;1196;139345;-76
2021/09/23 16:23:15;;;;;;;13.60;10.80;;;;;;;14.38;77.83;99704.54;230552;1196;138476;-75
2021/09/23 16:28:17;;;;;;;10.60;9.60;;;;;;;14.34;77.94;99691.58;230308;1188;138929;-77
2021/09/23 16:33:19;;;;;;;13.60;10.40;;;;;;;14.35;78.00;99686.35;229845;1195;138662;-75
2021/09/23 16:38:21;;;;;;;15.60;14.00;;;;;;;14.36;78.11;99692.55;229644;1196;138634;-75
2021/09/23 16:43:22;;;;;;;11.50;10.40;;;;;;;14.38;77.78;99686.46;229542;1196;138602;-74
2021/09/23 16:48:24;;;;;;;12.50;10.50;;;;;;;14.33;77.78;99678.83;228996;1198;139056;-75
2021/09/23 16:53:26;;;;;;;10.90;9.70;;;;;;;14.32;77.86;99665.40;229539;1197;139348;-75
2021/09/23 16:58:28;;;;;;;11.60;10.30;;;;;;;14.38;77.61;99651.17;230613;1195;139149;-78
2021/09/23 17:03:30;;;;;;;10.90;9.90;;;;;;;14.35;77.67;99634.74;230596;1194;138731;-76
2021/09/23 17:08:34;;;;;;;12.30;11.00;;;;;;;14.29;78.09;99617.50;230277;1196;138341;-78
2021/09/23 17:13:36;;;;;;;11.40;10.20;;;;;;;14.25;78.30;99599.52;230389;1196;138915;-75
2021/09/23 17:18:38;;;;;;;11.60;9.60;;;;;;;14.27;78.26;99579.17;230652;1196;139286;-75
2021/09/23 17:23:40;;;;;;;11.90;10.50;;;;;;;14.26;78.17;99571.02;230656;1196;138167;-77
2021/09/23 17:28:42;;;;;;;11.00;9.30;;;;;;;14.25;78.04;99549.20;229494;1196;138531;-75
2021/09/23 17:33:44;;;;;;;10.20;9.10;;;;;;;14.29;77.74;99534.08;229711;1196;138981;-75
2021/09/23 17:38:46;;;;;;;11.10;9.20;;;;;;;14.30;77.88;99511.86;230540;1196;138511;-76
2021/09/23 17:43:48;;;;;;;11.90;9.60;;;;;;;14.28;77.83;99502.67;230618;1180;138157;-77
2021/09/23 17:48:50;;;;;;;9.50;8.60;;;;;;;14.28;77.71;99490.86;230306;1196;138170;-74
2021/09/23 17:53:51;;;;;;;10.60;9.10;;;;;;;14.36;77.04;99483.98;230359;1196;138190;-77
2021/09/23 17:58:53;;;;;;;10.00;9.10;;;;;;;14.40;76.86;99478.14;230801;1195;139264;-79
2021/09/23 18:03:55;;;;;;;8.90;8.00;;;;;;;14.44;76.29;99473.92;230711;1195;138301;-72
2021/09/23 18:08:57;;;;;;;9.20;8.20;;;;;;;14.48;75.99;99465.77;230441;1196;138604;-79
2021/09/23 18:13:58;;;;;;;10.40;8.80;;;;;;;14.53;75.43;99458.06;230437;1196;138022;-80
2021/09/23 18:19:06;;;;;;;8.30;7.40;;;;;;;14.56;75.17;99451.12;230701;1196;139113;-79
2021/09/23 18:24:08;;;;;;;8.30;7.60;;;;;;;14.62;74.64;99438.45;230643;1195;139036;-78
2021/09/23 18:29:09;;;;;;;10.40;8.30;;;;;;;14.65;74.41;99427.45;230493;1196;138923;-78
2021/09/23 18:34:11;;;;;;;9.10;8.10;;;;;;;14.63;74.36;99418.98;230053;1195;138629;-75
2021/09/23 18:39:13;;;;;;;7.40;6.60;;;;;;;14.66;74.28;99408.79;230594;1195;139149;-76
2021/09/23 18:44:16;;;;;;;12.60;11.20;;;;;;;14.75;73.94;99405.20;230417;1196;138744;-76
2021/09/23 18:49:17;;;;;;;9.30;8.50;;;;;;;14.74;74.67;99403.85;230417;1195;138734;-75
2021/09/23 18:54:19;;;;;;;12.50;8.40;;;;;;;14.61;75.86;99394.75;230274;1196;138635;-76
2021/09/23 18:59:21;;;;;;;8.20;7.20;;;;;;;14.49;76.98;99377.80;230668;1197;139581;-76
2021/09/23 19:04:23;;;;;;;8.50;7.70;;;;;;;14.46;77.25;99365.17;230708;1195;139026;-76
2021/09/23 19:09:25;;;;;;;8.40;7.70;;;;;;;14.46;77.53;99349.60;230406;1195;138380;-77
2021/09/23 19:14:26;;;;;;;8.60;7.70;;;;;;;14.44;77.99;99351.77;230105;1196;139223;-75
2021/09/23 19:19:28;;;;;;;9.10;8.20;;;;;;;14.36;79.16;99339.28;229651;1196;138745;-76
2021/09/23 19:24:30;;;;;;;8.20;7.40;;;;;;;14.24;80.40;99324.55;230779;1196;138792;-77
2021/09/23 19:29:31;;;;;;;8.80;8.00;;;;;;;14.17;81.09;99310.68;230520;1196;138883;-76
2021/09/23 19:34:33;;;;;;;10.20;9.00;;;;;;;14.08;82.14;99308.38;230391;1196;138719;-76
2021/09/23 19:39:35;;;;;;;10.80;9.30;;;;;;;14.02;82.66;99293.66;230588;1195;138757;-74
2021/09/23 19:44:37;;;;;;;9.30;8.40;;;;;;;13.95;83.40;99284.45;229777;1199;140137;-74
2021/09/23 19:49:39;;;;;;;8.60;7.70;;;;;;;13.90;83.69;99272.02;229794;1200;138951;-75
2021/09/23 19:54:40;;;;;;;9.40;8.30;;;;;;;13.96;83.27;99261.24;230388;1196;138330;-75
2021/09/23 19:59:42;;;;;;;10.50;9.60;;;;;;;14.02;82.90;99245.11;229754;1196;138968;-74
2021/09/23 20:04:45;;;;;;;8.80;7.90;;;;;;;13.98;83.24;99237.36;229810;1196;138372;-74
2021/09/23 20:09:46;;;;;;;9.40;7.40;;;;;;;13.95;83.48;99227.77;230412;1196;138865;-75
2021/09/23 20:14:49;;;;;;;9.10;7.20;;;;;;;13.93;83.81;99219.02;229831;1197;138970;-76
2021/09/23 20:19:50;;;;;;;9.40;7.10;;;;;;;13.91;84.22;99203.82;229855;1196;139552;-76
2021/09/23 20:24:53;;;;;;;7.70;6.90;;;;;;;13.91;83.91;99196.86;230695;1196;138682;-77
2021/09/23 20:29:55;;;;;;;9.20;6.80;;;;;;;13.93;83.86;99186.16;230920;1196;138958;-78
2021/09/23 20:34:57;;;;;;;8.30;7.10;;;;;;;13.94;83.80;99179.46;230658;1196;138690;-75
2021/09/23 20:39:59;;;;;;;8.00;6.60;;;;;;;13.98;83.64;99169.45;230465;1196;138818;-75
2021/09/23 20:45:02;;;;;;;9.90;7.70;;;;;;;13.99;83.71;99156.41;230553;1195;139717;-76
2021/09/23 20:50:04;;;;;;;7.10;6.50;;;;;;;13.94;84.09;99144.39;230718;1195;138430;-75
2021/09/23 20:55:07;;;;;;;6.80;6.10;;;;;;;13.89;84.63;99138.88;229961;1180;140098;-74
2021/09/23 21:00:09;;;;;;;7.50;6.80;;;;;;;13.82;85.49;99131.20;230662;1196;138497;-77
2021/09/23 21:05:12;;;;;;;8.00;7.20;;;;;;;13.83;85.46;99123.48;230710;1196;138640;-74
2021/09/23 21:10:14;;;;;;;8.10;7.00;;;;;;;13.83;85.61;99122.95;230676;1197;138693;-75
2021/09/23 21:15:16;;;;;;;7.60;6.50;;;;;;;13.81;85.61;99110.30;230673;1195;138327;-76
2021/09/23 21:20:18;;;;;;;6.70;5.90;;;;;;;13.88;85.00;99114.86;230572;1196;138638;-76
2021/09/23 21:25:20;;;;;;;5.30;4.80;;;;;;;13.95;84.33;99110.35;230607;1195;138931;-74
2021/09/23 21:30:22;;;;;;;5.80;5.00;;;;;;;13.93;84.56;99107.99;230685;1195;139006;-74
2021/09/23 21:35:24;;;;;;;4.90;4.50;;;;;;;13.72;86.55;99096.45;229989;1196;138480;-74
2021/09/23 21:40:28;;;;;;;5.30;4.70;;;;;;;13.50;88.45;99095.30;230407;1196;138738;-74
2021/09/23 21:45:30;;;;;;;6.00;5.00;;;;;;;13.34;89.48;99084.71;230537;1196;139536;-74
2021/09/23 21:50:32;;;;;;;6.00;4.80;;;;;;;13.35;88.90;99066.80;230565;1196;138602;-76
2021/09/23 21:55:33;;;;;;;6.10;5.00;;;;;;;13.40;88.52;99049.52;230688;1195;138567;-73
2021/09/23 22:00:47;;;;;;;6.10;5.40;;;;;;;13.43;88.54;99038.71;230629;1196;139250;-78
2021/09/23 22:05:48;;;;;;;4.70;4.30;;;;;;;13.46;88.55;99037.40;234565;1195;138455;-74
2021/09/23 22:10:50;;;;;;;6.10;5.50;;;;;;;13.46;88.78;99016.20;230932;1195;139383;-78
2021/09/23 22:15:52;;;;;;;5.80;5.30;;;;;;;13.46;88.80;98992.11;230723;1194;139506;-76
2021/09/23 22:20:54;;;;;;;5.10;4.60;;;;;;;13.44;89.04;99004.28;230036;1195;138942;-74
2021/09/23 22:25:57;;;;;;;6.10;5.50;;;;;;;13.37;89.35;98983.47;230466;1196;139645;-74
2021/09/23 22:31:00;;;;;;;5.80;5.30;;;;;;;13.36;89.02;98966.77;230243;1196;138822;-76
2021/09/23 22:36:02;;;;;;;6.10;4.70;;;;;;;13.39;88.68;98969.46;230675;1196;138871;-73
2021/09/23 22:41:04;;;;;;;5.30;4.70;;;;;;;13.49;87.69;98962.83;229991;1196;138483;-76
2021/09/23 22:46:05;;;;;;;4.90;4.10;;;;;;;13.53;87.10;98959.48;230542;1196;138898;-76
2021/09/23 22:51:07;;;;;;;5.70;4.40;;;;;;;13.54;86.94;98971.40;230287;1196;138678;-75
2021/09/23 22:56:09;;;;;;;4.50;3.90;;;;;;;13.55;86.90;98966.95;230646;1196;138772;-75